TimePDT,TemperatureF,Dew PointF,Humidity,Sea Level PressureIn,VisibilityMPH,Wind Direction,Wind SpeedMPH,Gust SpeedMPH,PrecipitationIn,Events,Conditions,WindDirDegrees,DateUTC
12:15 AM,51.8,44.6,76,30.31,10.0,West,8.1,-,N/A,,Clear,270,2013-08-21 07:15:00
12:35 AM,50.0,44.6,82,30.31,10.0,Calm,Calm,-,N/A,,Scattered Clouds,0,2013-08-21 07:35:00
12:55 AM,48.2,44.6,87,30.31,10.0,WNW,4.6,-,N/A,,Clear,290,2013-08-21 07:55:00
1:15 AM,50.0,44.6,82,30.31,10.0,WNW,5.8,-,N/A,,Clear,290,2013-08-21 08:15:00
1:35 AM,50.0,44.6,82,30.31,10.0,WNW,4.6,-,N/A,,Clear,290,2013-08-21 08:35:00
1:55 AM,48.2,44.6,87,30.31,10.0,WNW,3.5,-,N/A,,Clear,300,2013-08-21 08:55:00
2:15 AM,50.0,44.6,82,30.31,10.0,Calm,Calm,-,N/A,,Scattered Clouds,0,2013-08-21 09:15:00
2:35 AM,51.8,44.6,76,30.31,10.0,West,6.9,-,N/A,,Scattered Clouds,270,2013-08-21 09:35:00
2:55 AM,50.0,44.6,82,30.31,10.0,West,6.9,-,N/A,,Mostly Cloudy,260,2013-08-21 09:55:00
3:15 AM,50.0,44.6,82,30.30,10.0,NNW,3.5,-,N/A,,Mostly Cloudy,330,2013-08-21 10:15:00
3:35 AM,50.0,44.6,82,30.30,10.0,NW,3.5,-,N/A,,Overcast,320,2013-08-21 10:35:00
3:55 AM,50.0,44.6,82,30.30,10.0,NW,4.6,-,N/A,,Overcast,310,2013-08-21 10:55:00
4:15 AM,50.0,44.6,82,30.30,10.0,NW,4.6,-,N/A,,Mostly Cloudy,310,2013-08-21 11:15:00
4:35 AM,50.0,44.6,82,30.30,10.0,WNW,3.5,-,N/A,,Scattered Clouds,300,2013-08-21 11:35:00
4:55 AM,50.0,44.6,82,30.30,10.0,Calm,Calm,-,N/A,,Mostly Cloudy,0,2013-08-21 11:55:00
5:15 AM,51.8,44.6,76,30.30,10.0,Calm,Calm,-,N/A,,Overcast,0,2013-08-21 12:15:00
5:35 AM,50.0,44.6,82,30.30,10.0,West,6.9,-,N/A,,Overcast,270,2013-08-21 12:35:00
5:55 AM,50.0,44.6,82,30.30,10.0,West,5.8,-,N/A,,Overcast,260,2013-08-21 12:55:00
6:15 AM,50.0,44.6,82,30.31,10.0,ESE,5.8,-,N/A,,Overcast,120,2013-08-21 13:15:00
6:35 AM,50.0,46.4,87,30.31,10.0,Calm,Calm,-,N/A,,Overcast,0,2013-08-21 13:35:00
6:55 AM,48.2,46.4,93,30.31,10.0,NNE,3.5,-,N/A,,Overcast,20,2013-08-21 13:55:00
7:15 AM,50.0,46.4,87,30.31,10.0,NNW,3.5,-,N/A,,Mostly Cloudy,340,2013-08-21 14:15:00
7:35 AM,53.6,48.2,82,30.31,10.0,Calm,Calm,-,N/A,,Clear,0,2013-08-21 14:35:00
7:55 AM,55.4,48.2,77,30.31,10.0,Calm,Calm,-,N/A,,Clear,0,2013-08-21 14:55:00
8:15 AM,57.2,46.4,67,30.32,10.0,Calm,Calm,-,N/A,,Clear,0,2013-08-21 15:15:00
8:35 AM,60.8,46.4,59,30.31,10.0,Calm,Calm,-,N/A,,Clear,0,2013-08-21 15:35:00
8:55 AM,62.6,48.2,59,30.30,10.0,Calm,Calm,-,N/A,,Clear,0,2013-08-21 15:55:00
9:15 AM,64.4,51.8,64,30.31,10.0,ESE,4.6,-,N/A,,Mostly Cloudy,110,2013-08-21 16:15:00
9:35 AM,62.6,50.0,63,30.31,10.0,SE,3.5,-,N/A,,Overcast,130,2013-08-21 16:35:00
9:55 AM,62.6,50.0,63,30.32,10.0,Calm,Calm,-,N/A,Rain,Light Rain,0,2013-08-21 16:55:00
10:15 AM,64.4,50.0,59,30.32,10.0,Calm,Calm,-,N/A,,Overcast,0,2013-08-21 17:15:00
10:35 AM,66.2,48.2,52,30.31,10.0,Calm,Calm,-,N/A,,Overcast,0,2013-08-21 17:35:00
10:55 AM,69.8,46.4,43,30.31,10.0,West,5.8,-,N/A,,Overcast,280,2013-08-21 17:55:00
11:15 AM,68.0,48.2,49,30.32,10.0,West,8.1,-,N/A,,Overcast,280,2013-08-21 18:15:00
11:35 AM,69.8,46.4,43,30.31,10.0,WNW,4.6,-,N/A,,Mostly Cloudy,290,2013-08-21 18:35:00
11:55 AM,66.2,50.0,56,30.32,0.8,WSW,4.6,-,0.02,Rain,Heavy Rain,250,2013-08-21 18:55:00
12:15 PM,66.2,50.0,56,30.30,10.0,Calm,Calm,-,N/A,Rain,Light Rain,0,2013-08-21 19:15:00
12:35 PM,68.0,46.4,46,30.29,10.0,Calm,Calm,-,N/A,,Scattered Clouds,0,2013-08-21 19:35:00
12:55 PM,68.0,48.2,49,30.30,10.0,ENE,4.6,-,N/A,Rain,Light Rain,70,2013-08-21 19:55:00
1:15 PM,71.6,46.4,41,30.29,10.0,ESE,12.7,19.6,N/A,,Mostly Cloudy,110,2013-08-21 20:15:00
1:35 PM,71.6,46.4,41,30.28,10.0,East,10.4,-,N/A,,Mostly Cloudy,100,2013-08-21 20:35:00
1:55 PM,71.6,44.6,38,30.28,10.0,ESE,8.1,-,N/A,Rain,Light Rain,110,2013-08-21 20:55:00
2:15 PM,69.8,44.6,40,30.28,10.0,ESE,9.2,-,N/A,,Overcast,120,2013-08-21 21:15:00
2:35 PM,77.0,44.6,32,30.27,10.0,East,15.0,-,N/A,,Mostly Cloudy,100,2013-08-21 21:35:00
2:55 PM,71.6,42.8,35,30.26,10.0,ESE,8.1,16.1,N/A,,Scattered Clouds,110,2013-08-21 21:55:00
3:15 PM,66.2,48.2,52,30.27,7.0,South,4.6,-,0.02,Rain,Light Rain,190,2013-08-21 22:15:00
3:35 PM,68.0,50.0,52,30.26,10.0,Calm,Calm,-,0.02,Rain,Light Rain,0,2013-08-21 22:35:00
3:55 PM,66.2,42.8,43,30.26,10.0,ESE,9.2,18.4,0.02,,Overcast,110,2013-08-21 22:55:00
4:15 PM,68.0,42.8,40,30.25,10.0,Calm,Calm,-,N/A,,Mostly Cloudy,0,2013-08-21 23:15:00
4:35 PM,69.8,41.0,35,30.26,10.0,NNW,4.6,-,N/A,,Mostly Cloudy,330,2013-08-21 23:35:00
4:55 PM,66.2,48.2,52,30.27,10.0,North,9.2,-,N/A,,Overcast,360,2013-08-21 23:55:00
5:15 PM,66.2,46.4,49,30.26,10.0,North,6.9,-,N/A,,Mostly Cloudy,360,2013-08-22 00:15:00
5:35 PM,62.6,48.2,59,30.27,10.0,ESE,10.4,-,0.01,Rain,Light Rain,110,2013-08-22 00:35:00
5:55 PM,57.2,51.8,82,30.25,7.0,SW,3.5,-,0.03,Rain,Light Rain,230,2013-08-22 00:55:00
6:15 PM,60.8,51.8,72,30.25,10.0,North,4.6,-,N/A,,Overcast,350,2013-08-22 01:15:00
6:35 PM,60.8,53.6,77,30.25,10.0,North,3.5,-,N/A,,Overcast,360,2013-08-22 01:35:00
6:55 PM,62.6,50.0,63,30.24,10.0,NNW,3.5,-,N/A,Rain,Light Rain,330,2013-08-22 01:55:00
7:15 PM,62.6,51.8,68,30.25,10.0,East,5.8,-,N/A,,Scattered Clouds,90,2013-08-22 02:15:00
7:35 PM,59.0,48.2,67,30.25,10.0,Calm,Calm,-,N/A,,Scattered Clouds,0,2013-08-22 02:35:00
7:55 PM,59.0,51.8,77,30.26,10.0,Calm,Calm,-,N/A,,Mostly Cloudy,0,2013-08-22 02:55:00
8:15 PM,57.2,51.8,82,30.26,10.0,SW,3.5,-,N/A,,Scattered Clouds,220,2013-08-22 03:15:00
8:35 PM,55.4,50.0,82,30.27,10.0,NNW,3.5,-,N/A,,Clear,330,2013-08-22 03:35:00
8:55 PM,53.6,50.0,88,30.28,10.0,Calm,Calm,-,N/A,,Clear,0,2013-08-22 03:55:00
9:15 PM,53.6,50.0,88,30.28,10.0,Calm,Calm,-,N/A,,Clear,0,2013-08-22 04:15:00
9:35 PM,51.8,48.2,88,30.29,10.0,WNW,3.5,-,N/A,,Clear,300,2013-08-22 04:35:00
9:55 PM,51.8,48.2,88,30.29,10.0,NW,3.5,-,N/A,,Clear,320,2013-08-22 04:55:00
10:15 PM,50.0,46.4,87,30.29,10.0,Calm,Calm,-,N/A,,Clear,0,2013-08-22 05:15:00
10:35 PM,51.8,48.2,88,30.30,10.0,Calm,Calm,-,N/A,,Clear,0,2013-08-22 05:35:00
10:55 PM,51.8,48.2,88,30.29,10.0,Calm,Calm,-,N/A,,Scattered Clouds,0,2013-08-22 05:55:00
11:15 PM,48.2,46.4,93,30.29,10.0,Calm,Calm,-,N/A,,Clear,0,2013-08-22 06:15:00
11:35 PM,46.4,44.6,93,30.29,10.0,North,3.5,-,N/A,,Clear,350,2013-08-22 06:35:00
11:55 PM,46.4,42.8,87,30.29,10.0,North,3.5,-,N/A,,Clear,350,2013-08-22 06:55:00